sensor_id;sensor_type;location;lat;lon;timestamp;P1;durP1;ratioP1;P2;durP2;ratioP2
64826;SDS011;51265;53.972;12.286;2024-01-15T00:00:27;6.75;;;2.30;;
64826;SDS011;51265;53.972;12.286;2024-01-15T00:02:53;8.65;;;1.95;;
64826;SDS011;51265;53.972;12.286;2024-01-15T00:05:19;6.72;;;1.70;;
64826;SDS011;51265;53.972;12.286;2024-01-15T00:07:45;5.22;;;1.45;;
64826;SDS011;51265;53.972;12.286;2024-01-15T00:10:11;6.22;;;1.40;;
64826;SDS011;51265;53.972;12.286;2024-01-15T00:12:37;5.60;;;1.08;;
64826;SDS011;51265;53.972;12.286;2024-01-15T00:15:04;6.82;;;1.50;;
64826;SDS011;51265;53.972;12.286;2024-01-15T00:17:31;5.63;;;1.33;;
64826;SDS011;51265;53.972;12.286;2024-01-15T00:19:58;8.15;;;1.20;;
64826;SDS011;51265;53.972;12.286;2024-01-15T00:22:25;9.43;;;1.58;;
64826;SDS011;51265;53.972;12.286;2024-01-15T00:24:52;6.45;;;1.42;;
64826;SDS011;51265;53.972;12.286;2024-01-15T00:27:18;11.40;;;1.67;;
64826;SDS011;51265;53.972;12.286;2024-01-15T00:29:44;6.10;;;1.67;;
64826;SDS011;51265;53.972;12.286;2024-01-15T00:32:11;8.10;;;1.58;;
64826;SDS011;51265;53.972;12.286;2024-01-15T00:38:46;9.75;;;2.15;;
64826;SDS011;51265;53.972;12.286;2024-01-15T00:41:13;6.03;;;1.38;;
64826;SDS011;51265;53.972;12.286;2024-01-15T00:43:40;7.20;;;1.42;;
64826;SDS011;51265;53.972;12.286;2024-01-15T00:46:06;10.95;;;1.85;;
64826;SDS011;51265;53.972;12.286;2024-01-15T00:48:32;7.20;;;1.65;;
64826;SDS011;51265;53.972;12.286;2024-01-15T00:50:58;5.43;;;1.40;;
64826;SDS011;51265;53.972;12.286;2024-01-15T00:53:25;10.18;;;1.63;;
64826;SDS011;51265;53.972;12.286;2024-01-15T00:55:51;6.93;;;1.40;;
64826;SDS011;51265;53.972;12.286;2024-01-15T00:58:18;5.63;;;1.63;;
64826;SDS011;51265;53.972;12.286;2024-01-15T01:00:44;10.07;;;1.65;;
64826;SDS011;51265;53.972;12.286;2024-01-15T01:03:11;12.25;;;1.67;;
64826;SDS011;51265;53.972;12.286;2024-01-15T01:05:37;5.43;;;1.27;;
64826;SDS011;51265;53.972;12.286;2024-01-15T01:08:04;10.30;;;1.65;;
64826;SDS011;51265;53.972;12.286;2024-01-15T01:10:30;11.20;;;2.75;;
64826;SDS011;51265;53.972;12.286;2024-01-15T01:12:56;8.80;;;1.83;;
64826;SDS011;51265;53.972;12.286;2024-01-15T01:15:23;10.05;;;1.60;;
64826;SDS011;51265;53.972;12.286;2024-01-15T01:17:50;13.57;;;1.58;;
64826;SDS011;51265;53.972;12.286;2024-01-15T01:20:16;9.50;;;1.70;;
64826;SDS011;51265;53.972;12.286;2024-01-15T01:22:42;11.02;;;1.83;;
64826;SDS011;51265;53.972;12.286;2024-01-15T01:25:08;13.68;;;1.85;;
64826;SDS011;51265;53.972;12.286;2024-01-15T01:27:35;10.20;;;1.73;;
64826;SDS011;51265;53.972;12.286;2024-01-15T01:30:01;9.80;;;1.77;;
64826;SDS011;51265;53.972;12.286;2024-01-15T01:32:28;11.23;;;1.80;;
64826;SDS011;51265;53.972;12.286;2024-01-15T01:34:54;6.03;;;1.52;;
64826;SDS011;51265;53.972;12.286;2024-01-15T01:37:20;9.68;;;1.98;;
64826;SDS011;51265;53.972;12.286;2024-01-15T01:39:47;10.50;;;1.70;;
64826;SDS011;51265;53.972;12.286;2024-01-15T01:42:13;5.05;;;1.27;;
64826;SDS011;51265;53.972;12.286;2024-01-15T01:44:39;6.32;;;1.25;;
64826;SDS011;51265;53.972;12.286;2024-01-15T01:47:05;9.75;;;1.70;;
64826;SDS011;51265;53.972;12.286;2024-01-15T01:49:31;10.55;;;1.88;;
64826;SDS011;51265;53.972;12.286;2024-01-15T01:51:59;6.97;;;1.55;;
64826;SDS011;51265;53.972;12.286;2024-01-15T01:54:28;9.23;;;1.70;;
64826;SDS011;51265;53.972;12.286;2024-01-15T01:56:55;8.82;;;1.48;;
64826;SDS011;51265;53.972;12.286;2024-01-15T01:59:23;9.57;;;2.15;;
64826;SDS011;51265;53.972;12.286;2024-01-15T02:01:53;3.55;;;0.90;;
64826;SDS011;51265;53.972;12.286;2024-01-15T02:04:22;7.55;;;1.35;;
64826;SDS011;51265;53.972;12.286;2024-01-15T02:06:50;10.45;;;2.08;;
64826;SDS011;51265;53.972;12.286;2024-01-15T02:09:17;5.68;;;1.00;;
64826;SDS011;51265;53.972;12.286;2024-01-15T02:11:47;6.50;;;1.73;;
64826;SDS011;51265;53.972;12.286;2024-01-15T02:14:14;6.55;;;1.25;;
64826;SDS011;51265;53.972;12.286;2024-01-15T02:16:41;7.35;;;1.48;;
64826;SDS011;51265;53.972;12.286;2024-01-15T02:19:07;7.22;;;1.90;;
64826;SDS011;51265;53.972;12.286;2024-01-15T02:21:33;8.23;;;1.42;;
64826;SDS011;51265;53.972;12.286;2024-01-15T02:23:59;11.68;;;2.20;;
64826;SDS011;51265;53.972;12.286;2024-01-15T02:26:26;9.50;;;1.75;;
64826;SDS011;51265;53.972;12.286;2024-01-15T02:28:52;7.50;;;1.40;;
64826;SDS011;51265;53.972;12.286;2024-01-15T02:31:18;8.38;;;1.85;;
64826;SDS011;51265;53.972;12.286;2024-01-15T02:33:44;7.05;;;1.13;;
64826;SDS011;51265;53.972;12.286;2024-01-15T02:36:12;7.80;;;1.55;;
64826;SDS011;51265;53.972;12.286;2024-01-15T02:38:38;6.65;;;1.45;;
64826;SDS011;51265;53.972;12.286;2024-01-15T02:41:04;10.25;;;2.08;;
64826;SDS011;51265;53.972;12.286;2024-01-15T02:43:30;12.60;;;2.38;;
64826;SDS011;51265;53.972;12.286;2024-01-15T02:45:56;6.05;;;1.40;;
64826;SDS011;51265;53.972;12.286;2024-01-15T02:48:22;7.72;;;1.60;;
64826;SDS011;51265;53.972;12.286;2024-01-15T02:50:48;12.57;;;1.95;;
64826;SDS011;51265;53.972;12.286;2024-01-15T02:53:15;10.38;;;2.10;;
64826;SDS011;51265;53.972;12.286;2024-01-15T02:55:41;7.60;;;1.33;;
64826;SDS011;51265;53.972;12.286;2024-01-15T02:58:07;5.68;;;1.67;;
64826;SDS011;51265;53.972;12.286;2024-01-15T03:00:33;12.88;;;1.73;;
64826;SDS011;51265;53.972;12.286;2024-01-15T03:02:59;5.55;;;1.77;;
64826;SDS011;51265;53.972;12.286;2024-01-15T03:05:26;8.15;;;1.30;;
64826;SDS011;51265;53.972;12.286;2024-01-15T03:07:52;11.38;;;2.08;;
64826;SDS011;51265;53.972;12.286;2024-01-15T03:10:18;8.55;;;1.30;;
64826;SDS011;51265;53.972;12.286;2024-01-15T03:12:44;9.93;;;1.42;;
64826;SDS011;51265;53.972;12.286;2024-01-15T03:15:10;4.05;;;1.17;;
64826;SDS011;51265;53.972;12.286;2024-01-15T03:17:36;6.25;;;1.63;;
64826;SDS011;51265;53.972;12.286;2024-01-15T03:20:02;5.70;;;1.42;;
64826;SDS011;51265;53.972;12.286;2024-01-15T03:22:29;12.75;;;1.92;;
64826;SDS011;51265;53.972;12.286;2024-01-15T03:24:55;7.63;;;1.60;;
64826;SDS011;51265;53.972;12.286;2024-01-15T03:27:21;11.20;;;1.88;;
64826;SDS011;51265;53.972;12.286;2024-01-15T03:29:47;5.78;;;1.08;;
64826;SDS011;51265;53.972;12.286;2024-01-15T03:32:13;4.97;;;1.02;;
64826;SDS011;51265;53.972;12.286;2024-01-15T03:34:41;8.25;;;1.45;;
64826;SDS011;51265;53.972;12.286;2024-01-15T03:37:07;7.70;;;1.30;;
64826;SDS011;51265;53.972;12.286;2024-01-15T03:39:33;9.02;;;1.33;;
64826;SDS011;51265;53.972;12.286;2024-01-15T03:42:00;10.32;;;1.50;;
64826;SDS011;51265;53.972;12.286;2024-01-15T03:44:26;8.50;;;1.58;;
64826;SDS011;51265;53.972;12.286;2024-01-15T03:46:52;7.85;;;1.30;;
64826;SDS011;51265;53.972;12.286;2024-01-15T03:49:18;5.40;;;1.17;;
64826;SDS011;51265;53.972;12.286;2024-01-15T03:51:44;5.95;;;1.17;;
64826;SDS011;51265;53.972;12.286;2024-01-15T03:54:11;7.53;;;1.27;;
64826;SDS011;51265;53.972;12.286;2024-01-15T03:56:37;6.57;;;2.13;;
64826;SDS011;51265;53.972;12.286;2024-01-15T03:59:03;8.18;;;1.67;;
64826;SDS011;51265;53.972;12.286;2024-01-15T04:01:29;8.23;;;1.75;;
64826;SDS011;51265;53.972;12.286;2024-01-15T04:03:55;6.85;;;1.40;;
64826;SDS011;51265;53.972;12.286;2024-01-15T04:06:21;10.23;;;1.95;;
64826;SDS011;51265;53.972;12.286;2024-01-15T04:08:48;9.32;;;1.50;;
64826;SDS011;51265;53.972;12.286;2024-01-15T04:11:14;6.97;;;1.48;;
64826;SDS011;51265;53.972;12.286;2024-01-15T04:13:40;9.68;;;2.38;;
64826;SDS011;51265;53.972;12.286;2024-01-15T04:16:06;8.77;;;1.83;;
64826;SDS011;51265;53.972;12.286;2024-01-15T04:18:32;10.40;;;1.70;;
64826;SDS011;51265;53.972;12.286;2024-01-15T04:20:58;5.97;;;1.30;;
64826;SDS011;51265;53.972;12.286;2024-01-15T04:23:24;8.80;;;1.63;;
64826;SDS011;51265;53.972;12.286;2024-01-15T04:25:50;12.93;;;1.75;;
64826;SDS011;51265;53.972;12.286;2024-01-15T04:28:16;8.30;;;1.67;;
64826;SDS011;51265;53.972;12.286;2024-01-15T04:30:43;9.57;;;1.70;;
64826;SDS011;51265;53.972;12.286;2024-01-15T04:33:09;6.22;;;1.60;;
64826;SDS011;51265;53.972;12.286;2024-01-15T04:35:35;8.73;;;1.95;;
64826;SDS011;51265;53.972;12.286;2024-01-15T04:38:01;12.07;;;1.65;;
64826;SDS011;51265;53.972;12.286;2024-01-15T04:40:27;14.75;;;1.60;;
64826;SDS011;51265;53.972;12.286;2024-01-15T04:42:54;6.63;;;1.50;;
64826;SDS011;51265;53.972;12.286;2024-01-15T04:45:20;13.88;;;2.45;;
64826;SDS011;51265;53.972;12.286;2024-01-15T04:47:48;11.18;;;1.83;;
64826;SDS011;51265;53.972;12.286;2024-01-15T04:50:15;7.25;;;1.63;;
64826;SDS011;51265;53.972;12.286;2024-01-15T04:52:41;7.18;;;1.02;;
64826;SDS011;51265;53.972;12.286;2024-01-15T04:55:07;10.40;;;1.70;;
64826;SDS011;51265;53.972;12.286;2024-01-15T04:57:33;8.90;;;1.48;;
64826;SDS011;51265;53.972;12.286;2024-01-15T04:59:59;8.57;;;2.28;;
64826;SDS011;51265;53.972;12.286;2024-01-15T05:02:26;8.88;;;1.42;;
64826;SDS011;51265;53.972;12.286;2024-01-15T05:04:52;8.63;;;1.40;;
64826;SDS011;51265;53.972;12.286;2024-01-15T05:07:18;8.00;;;1.25;;
64826;SDS011;51265;53.972;12.286;2024-01-15T05:09:44;8.55;;;1.20;;
64826;SDS011;51265;53.972;12.286;2024-01-15T05:12:10;8.95;;;1.17;;
64826;SDS011;51265;53.972;12.286;2024-01-15T05:14:37;4.68;;;1.00;;
64826;SDS011;51265;53.972;12.286;2024-01-15T05:17:03;12.20;;;1.58;;
64826;SDS011;51265;53.972;12.286;2024-01-15T05:19:29;5.95;;;1.63;;
64826;SDS011;51265;53.972;12.286;2024-01-15T05:21:55;7.18;;;1.27;;
64826;SDS011;51265;53.972;12.286;2024-01-15T05:24:21;6.38;;;1.40;;
64826;SDS011;51265;53.972;12.286;2024-01-15T05:26:47;8.85;;;1.10;;
64826;SDS011;51265;53.972;12.286;2024-01-15T05:29:14;6.55;;;1.65;;
64826;SDS011;51265;53.972;12.286;2024-01-15T05:31:40;9.50;;;2.17;;
64826;SDS011;51265;53.972;12.286;2024-01-15T05:34:06;7.13;;;1.23;;
64826;SDS011;51265;53.972;12.286;2024-01-15T05:36:32;5.10;;;1.10;;
64826;SDS011;51265;53.972;12.286;2024-01-15T05:38:58;5.15;;;1.17;;
64826;SDS011;51265;53.972;12.286;2024-01-15T05:41:24;7.32;;;1.10;;
64826;SDS011;51265;53.972;12.286;2024-01-15T05:43:51;2.40;;;0.85;;
64826;SDS011;51265;53.972;12.286;2024-01-15T05:46:17;7.43;;;1.60;;
64826;SDS011;51265;53.972;12.286;2024-01-15T05:48:43;4.68;;;0.95;;
64826;SDS011;51265;53.972;12.286;2024-01-15T05:51:09;3.40;;;0.80;;
64826;SDS011;51265;53.972;12.286;2024-01-15T05:53:36;10.55;;;1.40;;
64826;SDS011;51265;53.972;12.286;2024-01-15T05:56:04;9.15;;;1.00;;
64826;SDS011;51265;53.972;12.286;2024-01-15T05:58:30;6.38;;;1.85;;
64826;SDS011;51265;53.972;12.286;2024-01-15T06:00:56;7.38;;;1.10;;
64826;SDS011;51265;53.972;12.286;2024-01-15T06:03:22;9.27;;;1.33;;
64826;SDS011;51265;53.972;12.286;2024-01-15T06:05:49;3.85;;;1.23;;
64826;SDS011;51265;53.972;12.286;2024-01-15T06:08:15;6.82;;;1.55;;
64826;SDS011;51265;53.972;12.286;2024-01-15T06:10:41;10.32;;;1.65;;
64826;SDS011;51265;53.972;12.286;2024-01-15T06:13:07;4.88;;;1.48;;
64826;SDS011;51265;53.972;12.286;2024-01-15T06:15:33;9.98;;;1.85;;
64826;SDS011;51265;53.972;12.286;2024-01-15T06:17:59;9.73;;;1.65;;
64826;SDS011;51265;53.972;12.286;2024-01-15T06:20:25;4.65;;;1.17;;
64826;SDS011;51265;53.972;12.286;2024-01-15T06:22:51;6.82;;;1.30;;
64826;SDS011;51265;53.972;12.286;2024-01-15T06:25:18;9.30;;;1.45;;
64826;SDS011;51265;53.972;12.286;2024-01-15T06:27:44;7.75;;;1.80;;
64826;SDS011;51265;53.972;12.286;2024-01-15T06:30:10;9.60;;;1.27;;
64826;SDS011;51265;53.972;12.286;2024-01-15T06:32:37;5.55;;;1.42;;
64826;SDS011;51265;53.972;12.286;2024-01-15T06:35:03;7.15;;;1.20;;
64826;SDS011;51265;53.972;12.286;2024-01-15T06:37:30;4.93;;;1.30;;
64826;SDS011;51265;53.972;12.286;2024-01-15T06:39:58;7.45;;;2.22;;
64826;SDS011;51265;53.972;12.286;2024-01-15T06:42:24;4.65;;;0.90;;
64826;SDS011;51265;53.972;12.286;2024-01-15T06:44:51;6.45;;;0.85;;
64826;SDS011;51265;53.972;12.286;2024-01-15T06:47:17;7.57;;;1.20;;
64826;SDS011;51265;53.972;12.286;2024-01-15T06:49:43;8.60;;;1.27;;
64826;SDS011;51265;53.972;12.286;2024-01-15T06:52:09;2.85;;;0.80;;
64826;SDS011;51265;53.972;12.286;2024-01-15T06:54:35;4.53;;;0.63;;
64826;SDS011;51265;53.972;12.286;2024-01-15T06:57:01;3.13;;;0.80;;
64826;SDS011;51265;53.972;12.286;2024-01-15T06:59:27;2.80;;;0.47;;
64826;SDS011;51265;53.972;12.286;2024-01-15T07:01:53;0.73;;;0.30;;
64826;SDS011;51265;53.972;12.286;2024-01-15T07:04:21;1.85;;;0.32;;
64826;SDS011;51265;53.972;12.286;2024-01-15T07:06:47;1.95;;;0.30;;
64826;SDS011;51265;53.972;12.286;2024-01-15T07:09:14;2.30;;;0.63;;
64826;SDS011;51265;53.972;12.286;2024-01-15T07:11:43;2.05;;;0.50;;
64826;SDS011;51265;53.972;12.286;2024-01-15T07:14:10;1.35;;;0.40;;
64826;SDS011;51265;53.972;12.286;2024-01-15T07:16:36;2.15;;;0.40;;
64826;SDS011;51265;53.972;12.286;2024-01-15T07:19:02;0.30;;;0.20;;
64826;SDS011;51265;53.972;12.286;2024-01-15T07:21:29;2.25;;;0.45;;
64826;SDS011;51265;53.972;12.286;2024-01-15T07:23:56;0.93;;;0.30;;
64826;SDS011;51265;53.972;12.286;2024-01-15T07:26:22;2.75;;;0.40;;
64826;SDS011;51265;53.972;12.286;2024-01-15T07:28:48;1.17;;;0.40;;
64826;SDS011;51265;53.972;12.286;2024-01-15T07:31:15;1.83;;;0.38;;
64826;SDS011;51265;53.972;12.286;2024-01-15T07:33:42;3.97;;;0.63;;
64826;SDS011;51265;53.972;12.286;2024-01-15T07:36:08;1.35;;;0.40;;
64826;SDS011;51265;53.972;12.286;2024-01-15T07:38:34;2.00;;;0.43;;
64826;SDS011;51265;53.972;12.286;2024-01-15T07:41:00;2.58;;;0.57;;
64826;SDS011;51265;53.972;12.286;2024-01-15T07:43:27;4.13;;;0.65;;
64826;SDS011;51265;53.972;12.286;2024-01-15T07:45:54;3.83;;;0.57;;
64826;SDS011;51265;53.972;12.286;2024-01-15T07:48:20;2.58;;;0.40;;
64826;SDS011;51265;53.972;12.286;2024-01-15T07:50:46;4.75;;;0.70;;
64826;SDS011;51265;53.972;12.286;2024-01-15T07:53:12;1.27;;;0.28;;
64826;SDS011;51265;53.972;12.286;2024-01-15T07:55:38;3.05;;;0.50;;
64826;SDS011;51265;53.972;12.286;2024-01-15T07:58:04;2.58;;;0.70;;
64826;SDS011;51265;53.972;12.286;2024-01-15T08:00:30;1.33;;;0.47;;
64826;SDS011;51265;53.972;12.286;2024-01-15T08:02:56;2.80;;;0.40;;
64826;SDS011;51265;53.972;12.286;2024-01-15T08:05:22;2.58;;;0.52;;
64826;SDS011;51265;53.972;12.286;2024-01-15T08:07:49;13.77;;;0.93;;
64826;SDS011;51265;53.972;12.286;2024-01-15T08:10:15;2.22;;;0.40;;
64826;SDS011;51265;53.972;12.286;2024-01-15T08:12:41;2.60;;;0.47;;
64826;SDS011;51265;53.972;12.286;2024-01-15T08:15:07;4.53;;;0.70;;
64826;SDS011;51265;53.972;12.286;2024-01-15T08:17:34;2.58;;;0.40;;
64826;SDS011;51265;53.972;12.286;2024-01-15T08:20:00;3.35;;;0.60;;
64826;SDS011;51265;53.972;12.286;2024-01-15T08:22:27;2.50;;;0.82;;
64826;SDS011;51265;53.972;12.286;2024-01-15T08:24:53;2.17;;;0.63;;
64826;SDS011;51265;53.972;12.286;2024-01-15T08:27:21;2.47;;;0.70;;
64826;SDS011;51265;53.972;12.286;2024-01-15T08:29:47;2.80;;;0.50;;
64826;SDS011;51265;53.972;12.286;2024-01-15T08:32:13;3.22;;;0.50;;
64826;SDS011;51265;53.972;12.286;2024-01-15T08:34:41;4.10;;;0.47;;
64826;SDS011;51265;53.972;12.286;2024-01-15T08:37:08;1.73;;;0.43;;
64826;SDS011;51265;53.972;12.286;2024-01-15T08:39:34;2.63;;;0.45;;
64826;SDS011;51265;53.972;12.286;2024-01-15T08:42:05;3.17;;;0.60;;
64826;SDS011;51265;53.972;12.286;2024-01-15T08:44:31;3.53;;;0.50;;
64826;SDS011;51265;53.972;12.286;2024-01-15T08:46:57;3.72;;;0.70;;
64826;SDS011;51265;53.972;12.286;2024-01-15T08:49:23;8.00;;;0.95;;
64826;SDS011;51265;53.972;12.286;2024-01-15T08:51:50;3.70;;;0.90;;
64826;SDS011;51265;53.972;12.286;2024-01-15T08:54:16;2.63;;;0.55;;
64826;SDS011;51265;53.972;12.286;2024-01-15T08:56:44;4.32;;;0.50;;
64826;SDS011;51265;53.972;12.286;2024-01-15T08:59:10;3.22;;;0.50;;
64826;SDS011;51265;53.972;12.286;2024-01-15T09:01:38;3.20;;;0.63;;
64826;SDS011;51265;53.972;12.286;2024-01-15T09:04:04;1.20;;;0.47;;
64826;SDS011;51265;53.972;12.286;2024-01-15T09:06:31;4.60;;;0.98;;
64826;SDS011;51265;53.972;12.286;2024-01-15T09:08:57;7.72;;;1.27;;
64826;SDS011;51265;53.972;12.286;2024-01-15T09:11:23;6.20;;;0.90;;
64826;SDS011;51265;53.972;12.286;2024-01-15T09:13:50;3.55;;;0.88;;
64826;SDS011;51265;53.972;12.286;2024-01-15T09:16:17;2.33;;;0.57;;
64826;SDS011;51265;53.972;12.286;2024-01-15T09:18:43;3.40;;;0.65;;
64826;SDS011;51265;53.972;12.286;2024-01-15T09:21:10;6.30;;;0.73;;
64826;SDS011;51265;53.972;12.286;2024-01-15T09:23:36;2.20;;;0.60;;
64826;SDS011;51265;53.972;12.286;2024-01-15T09:26:02;6.40;;;1.58;;
64826;SDS011;51265;53.972;12.286;2024-01-15T09:28:28;3.63;;;0.60;;
64826;SDS011;51265;53.972;12.286;2024-01-15T09:30:54;2.75;;;0.77;;
64826;SDS011;51265;53.972;12.286;2024-01-15T09:33:20;1.38;;;0.55;;
64826;SDS011;51265;53.972;12.286;2024-01-15T09:35:46;5.70;;;1.00;;
64826;SDS011;51265;53.972;12.286;2024-01-15T09:38:13;4.75;;;0.63;;
64826;SDS011;51265;53.972;12.286;2024-01-15T09:40:39;2.50;;;0.90;;
64826;SDS011;51265;53.972;12.286;2024-01-15T09:43:09;5.75;;;0.52;;
64826;SDS011;51265;53.972;12.286;2024-01-15T09:45:35;2.25;;;0.55;;
64826;SDS011;51265;53.972;12.286;2024-01-15T09:48:02;4.45;;;0.65;;
64826;SDS011;51265;53.972;12.286;2024-01-15T09:50:28;5.10;;;0.82;;
64826;SDS011;51265;53.972;12.286;2024-01-15T09:52:54;2.67;;;0.35;;
64826;SDS011;51265;53.972;12.286;2024-01-15T09:55:23;2.75;;;0.60;;
64826;SDS011;51265;53.972;12.286;2024-01-15T09:57:49;1.27;;;0.30;;
64826;SDS011;51265;53.972;12.286;2024-01-15T10:00:17;6.45;;;0.70;;
64826;SDS011;51265;53.972;12.286;2024-01-15T10:02:44;6.18;;;0.60;;
64826;SDS011;51265;53.972;12.286;2024-01-15T10:05:10;1.15;;;0.47;;
64826;SDS011;51265;53.972;12.286;2024-01-15T10:07:37;1.63;;;0.50;;
64826;SDS011;51265;53.972;12.286;2024-01-15T10:10:03;2.38;;;0.52;;
64826;SDS011;51265;53.972;12.286;2024-01-15T10:12:30;2.42;;;0.50;;
64826;SDS011;51265;53.972;12.286;2024-01-15T10:14:56;5.75;;;1.35;;
64826;SDS011;51265;53.972;12.286;2024-01-15T10:17:23;2.38;;;0.55;;
64826;SDS011;51265;53.972;12.286;2024-01-15T10:19:50;3.55;;;0.90;;
64826;SDS011;51265;53.972;12.286;2024-01-15T10:22:16;2.83;;;0.60;;
64826;SDS011;51265;53.972;12.286;2024-01-15T10:24:43;3.85;;;0.50;;
64826;SDS011;51265;53.972;12.286;2024-01-15T10:27:10;2.75;;;0.82;;
64826;SDS011;51265;53.972;12.286;2024-01-15T10:29:37;2.85;;;0.63;;
64826;SDS011;51265;53.972;12.286;2024-01-15T10:32:06;5.28;;;0.50;;
64826;SDS011;51265;53.972;12.286;2024-01-15T10:34:37;5.43;;;0.80;;
64826;SDS011;51265;53.972;12.286;2024-01-15T10:37:08;1.05;;;0.40;;
64826;SDS011;51265;53.972;12.286;2024-01-15T10:39:35;1.33;;;0.40;;
64826;SDS011;51265;53.972;12.286;2024-01-15T10:42:02;1.17;;;0.60;;
64826;SDS011;51265;53.972;12.286;2024-01-15T10:44:29;1.55;;;0.63;;
64826;SDS011;51265;53.972;12.286;2024-01-15T10:46:55;1.65;;;0.50;;
64826;SDS011;51265;53.972;12.286;2024-01-15T10:49:22;2.70;;;0.68;;
64826;SDS011;51265;53.972;12.286;2024-01-15T10:51:52;1.25;;;0.60;;
64826;SDS011;51265;53.972;12.286;2024-01-15T10:54:19;2.78;;;0.63;;
64826;SDS011;51265;53.972;12.286;2024-01-15T10:56:46;0.52;;;0.40;;
64826;SDS011;51265;53.972;12.286;2024-01-15T10:59:13;4.50;;;0.47;;
64826;SDS011;51265;53.972;12.286;2024-01-15T11:01:39;1.30;;;0.55;;
64826;SDS011;51265;53.972;12.286;2024-01-15T11:04:08;1.02;;;0.40;;
64826;SDS011;51265;53.972;12.286;2024-01-15T11:06:44;4.88;;;1.00;;
64826;SDS011;51265;53.972;12.286;2024-01-15T11:09:12;1.88;;;0.65;;
64826;SDS011;51265;53.972;12.286;2024-01-15T11:11:44;4.63;;;0.70;;
64826;SDS011;51265;53.972;12.286;2024-01-15T11:17:10;2.55;;;0.60;;
64826;SDS011;51265;53.972;12.286;2024-01-15T11:19:44;1.30;;;0.40;;
64826;SDS011;51265;53.972;12.286;2024-01-15T11:22:47;0.35;;;0.20;;
64826;SDS011;51265;53.972;12.286;2024-01-15T11:25:13;1.98;;;0.30;;
64826;SDS011;51265;53.972;12.286;2024-01-15T11:27:41;0.65;;;0.30;;
64826;SDS011;51265;53.972;12.286;2024-01-15T11:30:09;1.42;;;0.43;;
64826;SDS011;51265;53.972;12.286;2024-01-15T11:32:37;2.25;;;0.50;;
64826;SDS011;51265;53.972;12.286;2024-01-15T11:35:07;0.65;;;0.30;;
64826;SDS011;51265;53.972;12.286;2024-01-15T11:42:58;1.92;;;0.30;;
64826;SDS011;51265;53.972;12.286;2024-01-15T11:45:25;2.83;;;0.40;;
64826;SDS011;51265;53.972;12.286;2024-01-15T11:48:11;1.75;;;0.47;;
64826;SDS011;51265;53.972;12.286;2024-01-15T11:50:45;3.15;;;1.40;;
64826;SDS011;51265;53.972;12.286;2024-01-15T11:53:15;3.67;;;0.45;;
64826;SDS011;51265;53.972;12.286;2024-01-15T11:55:45;1.67;;;0.40;;
64826;SDS011;51265;53.972;12.286;2024-01-15T11:58:11;1.45;;;0.38;;
64826;SDS011;51265;53.972;12.286;2024-01-15T12:00:42;1.23;;;0.30;;
64826;SDS011;51265;53.972;12.286;2024-01-15T12:03:10;1.17;;;0.30;;
64826;SDS011;51265;53.972;12.286;2024-01-15T12:05:37;4.38;;;0.47;;
64826;SDS011;51265;53.972;12.286;2024-01-15T12:08:04;1.35;;;0.40;;
64826;SDS011;51265;53.972;12.286;2024-01-15T12:10:39;2.40;;;0.50;;
64826;SDS011;51265;53.972;12.286;2024-01-15T12:13:10;3.72;;;0.70;;
64826;SDS011;51265;53.972;12.286;2024-01-15T12:15:41;1.33;;;0.47;;
64826;SDS011;51265;53.972;12.286;2024-01-15T12:18:09;3.53;;;0.60;;
64826;SDS011;51265;53.972;12.286;2024-01-15T12:20:36;1.88;;;0.43;;
64826;SDS011;51265;53.972;12.286;2024-01-15T12:23:02;1.23;;;0.30;;
64826;SDS011;51265;53.972;12.286;2024-01-15T12:25:32;0.55;;;0.22;;
64826;SDS011;51265;53.972;12.286;2024-01-15T12:27:59;3.67;;;0.65;;
64826;SDS011;51265;53.972;12.286;2024-01-15T12:30:27;3.20;;;0.88;;
64826;SDS011;51265;53.972;12.286;2024-01-15T12:32:53;0.73;;;0.28;;
64826;SDS011;51265;53.972;12.286;2024-01-15T12:35:20;1.33;;;0.30;;
64826;SDS011;51265;53.972;12.286;2024-01-15T12:37:47;1.23;;;0.38;;
64826;SDS011;51265;53.972;12.286;2024-01-15T12:40:13;2.15;;;0.38;;
64826;SDS011;51265;53.972;12.286;2024-01-15T12:42:45;1.80;;;0.40;;
64826;SDS011;51265;53.972;12.286;2024-01-15T12:45:11;3.17;;;0.52;;
64826;SDS011;51265;53.972;12.286;2024-01-15T12:47:39;0.85;;;0.40;;
64826;SDS011;51265;53.972;12.286;2024-01-15T12:50:10;2.45;;;0.50;;
64826;SDS011;51265;53.972;12.286;2024-01-15T12:52:39;2.08;;;0.40;;
64826;SDS011;51265;53.972;12.286;2024-01-15T12:55:07;2.05;;;0.40;;
64826;SDS011;51265;53.972;12.286;2024-01-15T12:57:34;1.98;;;0.38;;
64826;SDS011;51265;53.972;12.286;2024-01-15T13:00:02;3.13;;;0.70;;
64826;SDS011;51265;53.972;12.286;2024-01-15T13:02:41;1.42;;;0.52;;
64826;SDS011;51265;53.972;12.286;2024-01-15T13:05:08;1.65;;;0.30;;
64826;SDS011;51265;53.972;12.286;2024-01-15T13:07:35;2.20;;;0.30;;
64826;SDS011;51265;53.972;12.286;2024-01-15T13:10:01;2.90;;;0.47;;
64826;SDS011;51265;53.972;12.286;2024-01-15T13:12:27;3.05;;;0.52;;
64826;SDS011;51265;53.972;12.286;2024-01-15T13:14:53;2.35;;;0.40;;
64826;SDS011;51265;53.972;12.286;2024-01-15T13:17:19;1.67;;;0.40;;
64826;SDS011;51265;53.972;12.286;2024-01-15T13:19:47;1.17;;;0.43;;
64826;SDS011;51265;53.972;12.286;2024-01-15T13:22:13;2.67;;;0.40;;
64826;SDS011;51265;53.972;12.286;2024-01-15T13:24:40;2.28;;;0.30;;
64826;SDS011;51265;53.972;12.286;2024-01-15T13:27:06;1.67;;;0.45;;
64826;SDS011;51265;53.972;12.286;2024-01-15T13:29:32;3.25;;;0.50;;
64826;SDS011;51265;53.972;12.286;2024-01-15T13:31:59;3.00;;;0.68;;
64826;SDS011;51265;53.972;12.286;2024-01-15T13:34:26;2.63;;;0.50;;
64826;SDS011;51265;53.972;12.286;2024-01-15T13:36:52;3.13;;;0.65;;
64826;SDS011;51265;53.972;12.286;2024-01-15T13:39:19;0.73;;;0.32;;
64826;SDS011;51265;53.972;12.286;2024-01-15T13:41:46;1.38;;;0.28;;
64826;SDS011;51265;53.972;12.286;2024-01-15T13:44:13;1.42;;;0.30;;
64826;SDS011;51265;53.972;12.286;2024-01-15T13:46:39;3.25;;;0.75;;
64826;SDS011;51265;53.972;12.286;2024-01-15T13:49:05;0.95;;;0.30;;
64826;SDS011;51265;53.972;12.286;2024-01-15T13:51:35;1.38;;;0.57;;
64826;SDS011;51265;53.972;12.286;2024-01-15T13:54:02;1.88;;;0.28;;
64826;SDS011;51265;53.972;12.286;2024-01-15T13:56:30;1.95;;;0.30;;
64826;SDS011;51265;53.972;12.286;2024-01-15T13:58:58;0.98;;;0.28;;
64826;SDS011;51265;53.972;12.286;2024-01-15T14:01:25;0.90;;;0.38;;
64826;SDS011;51265;53.972;12.286;2024-01-15T14:03:51;1.88;;;0.38;;
64826;SDS011;51265;53.972;12.286;2024-01-15T14:06:17;3.05;;;0.40;;
64826;SDS011;51265;53.972;12.286;2024-01-15T14:08:43;2.35;;;0.50;;
64826;SDS011;51265;53.972;12.286;2024-01-15T14:11:09;1.55;;;0.30;;
64826;SDS011;51265;53.972;12.286;2024-01-15T14:13:36;2.88;;;0.40;;
64826;SDS011;51265;53.972;12.286;2024-01-15T14:16:02;0.30;;;0.30;;
64826;SDS011;51265;53.972;12.286;2024-01-15T14:18:28;1.83;;;0.30;;
64826;SDS011;51265;53.972;12.286;2024-01-15T14:20:54;2.72;;;0.40;;
64826;SDS011;51265;53.972;12.286;2024-01-15T14:23:20;2.50;;;0.60;;
64826;SDS011;51265;53.972;12.286;2024-01-15T14:25:47;0.40;;;0.20;;
64826;SDS011;51265;53.972;12.286;2024-01-15T14:28:14;3.15;;;0.40;;
64826;SDS011;51265;53.972;12.286;2024-01-15T14:30:40;1.25;;;0.22;;
64826;SDS011;51265;53.972;12.286;2024-01-15T14:33:06;1.88;;;0.30;;
64826;SDS011;51265;53.972;12.286;2024-01-15T14:35:32;4.38;;;0.60;;
64826;SDS011;51265;53.972;12.286;2024-01-15T14:37:58;6.55;;;0.50;;
64826;SDS011;51265;53.972;12.286;2024-01-15T14:40:25;2.03;;;0.30;;
64826;SDS011;51265;53.972;12.286;2024-01-15T14:42:52;1.13;;;0.38;;